Time;durP1;ratioP1;P1;durP2;ratioP2;P2;SDS_P1;SDS_P2;PMS_P1;PMS_P2;Temp;Humidity;BMP_temperature;BMP_pressure;BME280_temperature;BME280_humidity;BME280_pressure;Samples;Min_cycle;Max_cycle;Signal;HPM_P1;HPM_P2
2022/07/02 00:00:19;;;;;;;4.60;2.60;;;;;;;;;;5061112;28;20052;-61
2022/07/02 00:02:47;;;;;;;4.95;2.35;;;;;;;;;;5066643;28;20098;-61
2022/07/02 00:05:14;;;;;;;5.80;2.72;;;;;;;;;;5069883;28;20410;-61
2022/07/02 00:07:40;;;;;;;6.88;2.95;;;;;;;;;;5069581;28;20041;-61
2022/07/02 00:10:06;;;;;;;6.10;2.88;;;;;;;;;;5069836;28;20551;-61
2022/07/02 00:12:32;;;;;;;4.65;2.90;;;;;;;;;;5067300;28;20067;-61
2022/07/02 00:14:59;;;;;;;4.13;2.80;;;;;;;;;;5063968;28;20032;-61
2022/07/02 00:17:26;;;;;;;6.05;3.10;;;;;;;;;;5070000;28;20052;-61
2022/07/02 00:19:52;;;;;;;4.22;2.88;;;;;;;;;;5063671;28;20102;-61
2022/07/02 00:22:18;;;;;;;5.25;3.10;;;;;;;;;;5066827;28;20040;-61
2022/07/02 00:24:45;;;;;;;6.07;3.17;;;;;;;;;;5070835;28;20040;-61
2022/07/02 00:27:16;;;;;;;4.35;3.05;;;;;;;;;;5060739;28;20090;-61
2022/07/02 00:29:42;;;;;;;;;;;;;;;;;;5070964;28;20127;-61
2022/07/02 00:32:08;;;;;;;7.53;3.42;;;;;;;;;;5070005;28;19967;-61
2022/07/02 00:34:36;;;;;;;3.97;3.45;;;;;;;;;;5069372;28;20032;-61
2022/07/02 00:37:03;;;;;;;6.57;3.35;;;;;;;;;;5071445;28;20040;-61
2022/07/02 00:39:29;;;;;;;4.72;3.20;;;;;;;;;;5069987;28;20465;-61
2022/07/02 00:41:55;;;;;;;8.32;3.42;;;;;;;;;;5067479;28;20067;-61
2022/07/02 00:44:22;;;;;;;4.18;3.20;;;;;;;;;;5069025;28;20040;-61
2022/07/02 00:46:48;;;;;;;3.58;3.28;;;;;;;;;;5066977;28;20039;-61
2022/07/02 00:49:14;;;;;;;7.00;3.40;;;;;;;;;;5068920;28;20036;-61
2022/07/02 00:51:40;;;;;;;5.13;3.47;;;;;;;;;;5069990;28;20063;-61
2022/07/02 00:54:06;;;;;;;8.15;3.40;;;;;;;;;;5062900;28;20483;-61
2022/07/02 00:56:33;;;;;;;5.65;3.72;;;;;;;;;;5067560;28;20097;-61
2022/07/02 00:58:59;;;;;;;4.80;3.20;;;;;;;;;;5073061;28;20116;-61
2022/07/02 01:01:25;;;;;;;5.70;3.33;;;;;;;;;;5071125;28;20309;-61
2022/07/02 01:03:51;;;;;;;5.13;3.03;;;;;;;;;;5073643;28;20040;-61
2022/07/02 01:06:18;;;;;;;4.55;3.47;;;;;;;;;;5073402;28;20628;-61
2022/07/02 01:11:33;;;;;;;4.55;3.25;;;;;;;;;;5068584;28;20048;-61
2022/07/02 01:14:00;;;;;;;5.75;3.58;;;;;;;;;;5066078;28;20072;-61
2022/07/02 01:16:26;;;;;;;4.93;3.03;;;;;;;;;;5065158;28;20045;-61
2022/07/02 01:18:52;;;;;;;3.88;2.85;;;;;;;;;;5073977;28;20271;-61
2022/07/02 01:21:18;;;;;;;6.43;3.35;;;;;;;;;;5066422;28;20441;-61
2022/07/02 01:23:44;;;;;;;5.20;3.00;;;;;;;;;;5060841;28;20427;-61
2022/07/02 01:26:10;;;;;;;5.40;3.60;;;;;;;;;;5061199;28;20117;-60
2022/07/02 01:28:36;;;;;;;7.07;3.45;;;;;;;;;;5073685;28;20047;-61
2022/07/02 01:31:02;;;;;;;4.03;3.35;;;;;;;;;;5071304;28;20028;-61
2022/07/02 01:33:28;;;;;;;4.68;3.70;;;;;;;;;;5071777;28;20478;-61
2022/07/02 01:35:54;;;;;;;7.07;3.60;;;;;;;;;;5073669;28;20032;-61
2022/07/02 01:38:20;;;;;;;5.55;3.60;;;;;;;;;;5073013;28;20036;-61
2022/07/02 01:40:46;;;;;;;6.13;3.90;;;;;;;;;;5071325;28;20478;-61
2022/07/02 01:43:12;;;;;;;7.07;4.03;;;;;;;;;;5073289;28;20548;-61
2022/07/02 01:45:38;;;;;;;5.00;3.83;;;;;;;;;;5072378;28;20090;-61
2022/07/02 01:48:05;;;;;;;5.60;3.92;;;;;;;;;;5072157;28;20036;-61
2022/07/02 01:50:34;;;;;;;6.68;4.43;;;;;;;;;;5068655;28;20527;-60
2022/07/02 01:53:00;;;;;;;5.25;4.43;;;;;;;;;;5061665;28;20098;-61
2022/07/02 01:55:26;;;;;;;6.80;4.00;;;;;;;;;;5065554;28;20099;-61
2022/07/02 01:57:52;;;;;;;7.05;4.22;;;;;;;;;;5073297;28;20041;-60
2022/07/02 02:00:18;;;;;;;5.05;4.00;;;;;;;;;;5069299;28;20055;-60
2022/07/02 02:02:44;;;;;;;5.45;3.92;;;;;;;;;;5072427;28;20040;-60
2022/07/02 02:05:10;;;;;;;5.15;4.28;;;;;;;;;;5063085;28;20036;-61
2022/07/02 02:07:36;;;;;;;4.88;3.92;;;;;;;;;;5070792;28;20407;-60
2022/07/02 02:10:02;;;;;;;5.32;4.07;;;;;;;;;;5072758;28;20066;-61
2022/07/02 02:12:28;;;;;;;6.53;4.10;;;;;;;;;;5063447;28;20037;-61
2022/07/02 02:14:54;;;;;;;5.40;4.72;;;;;;;;;;5065425;28;20116;-61
2022/07/02 02:17:20;;;;;;;6.63;4.60;;;;;;;;;;5070401;28;20148;-61
2022/07/02 02:19:46;;;;;;;5.13;4.47;;;;;;;;;;5072374;28;20040;-61
2022/07/02 02:22:12;;;;;;;7.63;5.25;;;;;;;;;;5072500;28;20548;-61
2022/07/02 02:24:38;;;;;;;5.78;5.10;;;;;;;;;;5067785;28;20044;-61
2022/07/02 02:27:04;;;;;;;6.13;4.53;;;;;;;;;;5067782;28;20036;-61
2022/07/02 02:29:30;;;;;;;7.55;4.90;;;;;;;;;;5071341;28;20136;-61
2022/07/02 02:31:56;;;;;;;7.43;5.15;;;;;;;;;;5071216;28;20042;-61
2022/07/02 02:34:23;;;;;;;9.40;5.88;;;;;;;;;;5070419;28;20111;-61
2022/07/02 02:36:49;;;;;;;7.13;5.22;;;;;;;;;;5064543;28;20044;-61
2022/07/02 02:39:15;;;;;;;7.32;5.10;;;;;;;;;;5064482;28;20040;-61
2022/07/02 02:41:41;;;;;;;6.82;5.07;;;;;;;;;;5062362;28;20058;-61
2022/07/02 02:44:07;;;;;;;8.45;5.13;;;;;;;;;;5071922;28;20037;-61
2022/07/02 02:46:33;;;;;;;8.27;5.38;;;;;;;;;;5063287;28;20063;-61
2022/07/02 02:48:59;;;;;;;6.38;4.85;;;;;;;;;;5069918;28;20482;-61
2022/07/02 02:51:25;;;;;;;6.10;5.13;;;;;;;;;;5073014;28;20047;-61
2022/07/02 02:53:51;;;;;;;6.95;5.45;;;;;;;;;;5070906;28;20052;-61
2022/07/02 02:56:17;;;;;;;7.65;4.75;;;;;;;;;;5070441;28;20124;-61
2022/07/02 02:58:43;;;;;;;6.75;5.43;;;;;;;;;;5072411;28;20065;-61
2022/07/02 03:01:09;;;;;;;8.57;5.50;;;;;;;;;;5070492;28;20035;-60
2022/07/02 03:03:35;;;;;;;8.20;5.20;;;;;;;;;;5060510;28;20037;-61
2022/07/02 03:06:01;;;;;;;6.85;5.15;;;;;;;;;;5064102;28;20033;-61
2022/07/02 03:08:27;;;;;;;7.72;4.78;;;;;;;;;;5061794;28;20122;-61
2022/07/02 03:10:53;;;;;;;7.45;4.95;;;;;;;;;;5071534;28;20028;-61
2022/07/02 03:13:19;;;;;;;8.57;4.85;;;;;;;;;;5071472;28;20498;-61
2022/07/02 03:15:45;;;;;;;6.38;4.72;;;;;;;;;;5069227;28;20063;-61
2022/07/02 03:18:12;;;;;;;8.70;5.20;;;;;;;;;;5070234;28;20075;-61
2022/07/02 03:20:38;;;;;;;9.13;4.93;;;;;;;;;;5061443;28;20042;-60
2022/07/02 03:23:04;;;;;;;7.82;5.03;;;;;;;;;;5062144;28;20043;-61
2022/07/02 03:25:30;;;;;;;7.15;4.80;;;;;;;;;;5069388;28;20051;-61
2022/07/02 03:27:56;;;;;;;6.80;5.03;;;;;;;;;;5062202;28;20045;-61
2022/07/02 03:30:22;;;;;;;7.07;5.55;;;;;;;;;;5067326;28;20418;-60
2022/07/02 03:32:48;;;;;;;9.00;4.93;;;;;;;;;;5058951;28;20402;-61
2022/07/02 03:35:14;;;;;;;7.30;4.88;;;;;;;;;;5067731;28;20040;-61
2022/07/02 03:37:40;;;;;;;6.57;5.25;;;;;;;;;;5065623;28;20046;-61
2022/07/02 03:40:06;;;;;;;8.27;5.15;;;;;;;;;;5059938;28;20040;-60
2022/07/02 03:42:32;;;;;;;6.38;5.00;;;;;;;;;;5071096;28;20040;-60
2022/07/02 03:44:58;;;;;;;6.15;5.05;;;;;;;;;;5067565;28;20504;-61
2022/07/02 03:47:24;;;;;;;5.55;4.95;;;;;;;;;;5070359;28;20119;-61
2022/07/02 03:49:50;;;;;;;6.78;5.53;;;;;;;;;;5065446;28;20078;-61
2022/07/02 03:52:16;;;;;;;8.55;5.75;;;;;;;;;;5067030;28;20040;-61
2022/07/02 03:54:42;;;;;;;5.80;5.20;;;;;;;;;;5069503;28;20302;-61
2022/07/02 03:57:08;;;;;;;8.95;5.93;;;;;;;;;;5071180;28;20029;-61
2022/07/02 03:59:34;;;;;;;8.48;6.07;;;;;;;;;;5067177;28;20033;-60
2022/07/02 04:02:00;;;;;;;6.55;5.85;;;;;;;;;;5065913;28;20446;-60
2022/07/02 04:04:26;;;;;;;8.40;6.13;;;;;;;;;;5070041;28;20194;-61
2022/07/02 04:06:52;;;;;;;9.18;6.50;;;;;;;;;;5067121;28;20393;-61
2022/07/02 04:09:18;;;;;;;8.63;6.05;;;;;;;;;;5070791;28;20040;-61
2022/07/02 04:11:44;;;;;;;9.93;6.13;;;;;;;;;;5065248;28;20025;-61
2022/07/02 04:14:10;;;;;;;7.47;6.50;;;;;;;;;;5067602;28;20047;-61
2022/07/02 04:16:36;;;;;;;9.90;6.45;;;;;;;;;;5067789;28;20406;-60
2022/07/02 04:19:02;;;;;;;9.00;6.45;;;;;;;;;;5068262;28;20325;-61
2022/07/02 04:21:28;;;;;;;8.38;6.55;;;;;;;;;;5066871;28;20028;-60
2022/07/02 04:23:54;;;;;;;7.32;6.40;;;;;;;;;;5064547;28;20040;-60
2022/07/02 04:26:20;;;;;;;9.90;6.72;;;;;;;;;;5087747;22;20048;-62
2022/07/02 04:28:46;;;;;;;9.48;6.63;;;;;;;;;;5093193;28;20067;-62
2022/07/02 04:31:12;;;;;;;8.85;6.70;;;;;;;;;;5078591;28;20040;-62
2022/07/02 04:33:38;;;;;;;9.82;7.45;;;;;;;;;;5075224;28;20036;-62
2022/07/02 04:36:04;;;;;;;8.80;6.65;;;;;;;;;;5082288;28;20387;-61
2022/07/02 04:38:30;;;;;;;10.13;6.90;;;;;;;;;;5085407;28;20408;-62
2022/07/02 04:40:56;;;;;;;9.00;6.75;;;;;;;;;;5085360;28;20116;-62
2022/07/02 04:43:22;;;;;;;10.57;6.72;;;;;;;;;;5085736;28;20108;-62
2022/07/02 04:45:48;;;;;;;9.98;7.20;;;;;;;;;;5094081;28;20066;-61
2022/07/02 04:48:14;;;;;;;8.90;6.32;;;;;;;;;;5081683;28;20036;-62
2022/07/02 04:50:40;;;;;;;10.27;6.78;;;;;;;;;;5086576;28;20032;-61
2022/07/02 04:53:06;;;;;;;8.23;6.60;;;;;;;;;;5089427;28;20036;-61
2022/07/02 04:55:32;;;;;;;9.27;6.63;;;;;;;;;;5088715;28;20028;-62
2022/07/02 04:57:58;;;;;;;8.23;6.70;;;;;;;;;;5089027;28;20552;-61
2022/07/02 05:00:25;;;;;;;9.88;6.43;;;;;;;;;;5083339;28;20115;-63
2022/07/02 05:02:51;;;;;;;12.20;6.80;;;;;;;;;;5086060;28;20040;-63
2022/07/02 05:05:17;;;;;;;10.40;6.65;;;;;;;;;;5093257;28;20134;-63
2022/07/02 05:07:43;;;;;;;9.90;6.88;;;;;;;;;;5091548;28;20497;-63
2022/07/02 05:10:09;;;;;;;8.82;7.05;;;;;;;;;;5092479;28;20039;-63
2022/07/02 05:12:35;;;;;;;10.27;7.10;;;;;;;;;;5073986;28;20040;-63
2022/07/02 05:15:01;;;;;;;11.18;7.05;;;;;;;;;;5091026;28;20044;-63
2022/07/02 05:17:27;;;;;;;7.15;6.32;;;;;;;;;;5085750;28;20050;-63
2022/07/02 05:19:53;;;;;;;7.40;6.47;;;;;;;;;;5092982;28;20098;-62
2022/07/02 05:22:20;;;;;;;10.98;7.03;;;;;;;;;;5084531;28;20105;-63
2022/07/02 05:24:46;;;;;;;9.05;7.25;;;;;;;;;;5090458;28;20054;-63
2022/07/02 05:27:12;;;;;;;9.25;7.10;;;;;;;;;;5093356;28;20075;-63
2022/07/02 05:29:38;;;;;;;8.18;6.35;;;;;;;;;;5073787;28;20067;-63
2022/07/02 05:32:04;;;;;;;10.38;6.45;;;;;;;;;;5087505;28;20507;-63
2022/07/02 05:34:30;;;;;;;7.03;5.95;;;;;;;;;;5085372;28;20040;-63
2022/07/02 05:36:56;;;;;;;8.75;6.43;;;;;;;;;;5085811;28;20069;-63
2022/07/02 05:39:22;;;;;;;9.30;6.30;;;;;;;;;;5083370;28;20044;-63
2022/07/02 05:41:48;;;;;;;8.65;6.32;;;;;;;;;;5089028;28;20032;-63
2022/07/02 05:44:14;;;;;;;8.52;6.68;;;;;;;;;;5079589;28;20451;-63
2022/07/02 05:46:40;;;;;;;7.68;5.95;;;;;;;;;;5089252;28;20045;-63
2022/07/02 05:49:06;;;;;;;8.82;6.28;;;;;;;;;;5085320;28;20033;-63
2022/07/02 05:51:32;;;;;;;8.80;5.93;;;;;;;;;;5085337;28;20036;-63
2022/07/02 05:53:58;;;;;;;6.20;5.45;;;;;;;;;;5086664;28;20397;-63
2022/07/02 05:56:24;;;;;;;9.27;5.55;;;;;;;;;;5088171;28;20048;-63
2022/07/02 05:58:50;;;;;;;7.25;5.22;;;;;;;;;;5076669;28;20040;-63
2022/07/02 06:01:16;;;;;;;5.68;4.47;;;;;;;;;;5083869;28;20040;-63
2022/07/02 06:03:42;;;;;;;6.30;4.55;;;;;;;;;;5083693;28;20032;-63
2022/07/02 06:08:53;;;;;;;7.65;4.60;;;;;;;;;;5087279;28;20044;-64
2022/07/02 06:11:19;;;;;;;9.07;4.00;;;;;;;;;;5090780;28;20043;-64
2022/07/02 06:13:45;;;;;;;6.13;3.55;;;;;;;;;;5082079;28;20035;-64
2022/07/02 06:16:11;;;;;;;6.35;3.50;;;;;;;;;;5079185;28;20067;-64
2022/07/02 06:18:37;;;;;;;6.18;3.75;;;;;;;;;;5091239;28;20081;-64
2022/07/02 06:21:03;;;;;;;7.13;4.10;;;;;;;;;;5089822;28;20040;-64
2022/07/02 06:23:29;;;;;;;9.25;4.10;;;;;;;;;;5083193;28;20048;-64
2022/07/02 06:25:55;;;;;;;6.57;3.90;;;;;;;;;;5082018;28;20040;-64
2022/07/02 06:28:21;;;;;;;6.95;3.60;;;;;;;;;;5080143;28;20055;-64
2022/07/02 06:30:47;;;;;;;7.13;3.95;;;;;;;;;;5086319;28;20040;-64
2022/07/02 06:33:13;;;;;;;6.05;3.30;;;;;;;;;;5091116;28;20586;-64
2022/07/02 06:35:40;;;;;;;7.32;3.70;;;;;;;;;;5090792;28;20074;-64
2022/07/02 06:38:07;;;;;;;8.00;3.30;;;;;;;;;;5083339;28;20051;-64
2022/07/02 06:40:33;;;;;;;4.68;3.40;;;;;;;;;;5084729;28;20486;-64
2022/07/02 06:42:59;;;;;;;4.78;3.00;;;;;;;;;;5085547;28;20035;-64
2022/07/02 06:45:25;;;;;;;6.43;2.70;;;;;;;;;;5091758;28;20032;-64
2022/07/02 06:47:51;;;;;;;5.15;2.78;;;;;;;;;;5088384;28;20401;-64
2022/07/02 06:50:18;;;;;;;4.25;2.50;;;;;;;;;;5082922;28;20040;-64
2022/07/02 06:52:45;;;;;;;5.88;2.30;;;;;;;;;;5095573;28;20036;-64
2022/07/02 06:55:12;;;;;;;3.72;2.22;;;;;;;;;;5091603;28;20036;-64
2022/07/02 06:57:38;;;;;;;3.40;1.92;;;;;;;;;;5084786;28;20658;-64
2022/07/02 07:00:05;;;;;;;5.03;2.03;;;;;;;;;;5083108;28;20036;-64
2022/07/02 07:02:31;;;;;;;3.40;1.77;;;;;;;;;;5090954;28;20126;-64
2022/07/02 07:04:57;;;;;;;7.80;1.75;;;;;;;;;;5076925;28;20040;-64
2022/07/02 07:07:28;;;;;;;4.03;1.42;;;;;;;;;;5087634;28;20477;-64
2022/07/02 07:09:55;;;;;;;3.55;1.00;;;;;;;;;;5086796;28;20040;-64
2022/07/02 07:12:21;;;;;;;4.32;1.20;;;;;;;;;;5091345;28;20044;-64
2022/07/02 07:14:47;;;;;;;2.30;0.80;;;;;;;;;;5089443;28;20036;-64
2022/07/02 07:17:13;;;;;;;2.05;0.77;;;;;;;;;;5086770;28;20123;-63
2022/07/02 07:19:39;;;;;;;2.13;0.93;;;;;;;;;;5082021;28;20044;-64
2022/07/02 07:22:05;;;;;;;2.97;1.00;;;;;;;;;;5083419;28;20043;-64
2022/07/02 07:24:31;;;;;;;2.03;0.95;;;;;;;;;;5081426;28;20047;-64
2022/07/02 07:26:58;;;;;;;1.55;0.68;;;;;;;;;;5087651;28;20043;-65
2022/07/02 07:29:24;;;;;;;2.90;0.68;;;;;;;;;;5091285;28;20040;-64
2022/07/02 07:31:50;;;;;;;1.27;0.60;;;;;;;;;;5089081;28;20405;-64
2022/07/02 07:34:16;;;;;;;2.15;0.80;;;;;;;;;;5084285;28;20044;-64
2022/07/02 07:36:42;;;;;;;8.50;2.00;;;;;;;;;;5090106;28;20122;-64
2022/07/02 07:39:08;;;;;;;3.28;1.33;;;;;;;;;;5083295;28;20048;-64
2022/07/02 07:41:34;;;;;;;3.03;0.68;;;;;;;;;;5090326;28;20036;-64
2022/07/02 07:44:01;;;;;;;1.50;1.00;;;;;;;;;;5085982;28;20036;-64
2022/07/02 07:46:27;;;;;;;2.58;0.80;;;;;;;;;;5089629;28;20059;-64
2022/07/02 07:48:53;;;;;;;1.23;0.55;;;;;;;;;;5078980;28;20033;-64
2022/07/02 07:51:19;;;;;;;2.60;0.68;;;;;;;;;;5087389;28;20042;-64
2022/07/02 07:53:45;;;;;;;3.90;0.90;;;;;;;;;;5092208;28;20450;-64
2022/07/02 07:56:18;;;;;;;1.90;0.50;;;;;;;;;;5090230;28;20438;-64
2022/07/02 07:58:44;;;;;;;1.60;0.70;;;;;;;;;;5091687;28;20043;-64
2022/07/02 08:01:10;;;;;;;1.92;0.90;;;;;;;;;;5091539;28;20043;-65
2022/07/02 08:03:36;;;;;;;1.15;0.77;;;;;;;;;;5089961;28;20071;-64
2022/07/02 08:06:02;;;;;;;2.20;0.85;;;;;;;;;;5084197;28;20088;-64
2022/07/02 08:08:28;;;;;;;2.65;0.80;;;;;;;;;;5091460;28;20040;-64
2022/07/02 08:10:54;;;;;;;1.40;0.80;;;;;;;;;;5091765;28;20039;-65
2022/07/02 08:13:20;;;;;;;1.02;0.60;;;;;;;;;;5091223;28;20040;-64
2022/07/02 08:15:46;;;;;;;1.58;0.60;;;;;;;;;;5090911;28;20472;-64
2022/07/02 08:18:12;;;;;;;1.02;0.50;;;;;;;;;;5089828;28;20071;-65
2022/07/02 08:20:39;;;;;;;2.10;0.60;;;;;;;;;;5086876;28;20036;-65
2022/07/02 08:23:05;;;;;;;2.83;0.70;;;;;;;;;;5082858;28;20041;-65
2022/07/02 08:25:31;;;;;;;2.70;0.60;;;;;;;;;;5090873;28;20040;-65
2022/07/02 08:27:57;;;;;;;1.65;0.50;;;;;;;;;;5091204;28;20048;-65
2022/07/02 08:30:23;;;;;;;0.68;0.60;;;;;;;;;;5087846;28;20039;-64
2022/07/02 08:32:51;;;;;;;1.52;0.70;;;;;;;;;;5082636;28;20028;-64
2022/07/02 08:35:17;;;;;;;0.98;0.65;;;;;;;;;;5086831;28;20036;-62
2022/07/02 08:37:43;;;;;;;0.70;0.30;;;;;;;;;;5091750;28;20036;-61
2022/07/02 08:40:10;;;;;;;0.82;0.40;;;;;;;;;;5085992;28;20065;-61
2022/07/02 08:42:36;;;;;;;1.33;0.50;;;;;;;;;;5087316;28;21809;-61
2022/07/02 08:45:03;;;;;;;2.40;0.52;;;;;;;;;;5086784;28;20044;-61
2022/07/02 08:47:30;;;;;;;1.50;0.40;;;;;;;;;;5087378;28;20086;-61
2022/07/02 08:49:56;;;;;;;2.22;0.60;;;;;;;;;;5083044;28;20032;-61
2022/07/02 08:52:23;;;;;;;1.33;0.50;;;;;;;;;;5089018;28;20485;-62
2022/07/02 08:54:50;;;;;;;7.20;0.90;;;;;;;;;;5079888;28;20067;-61
2022/07/02 08:57:16;;;;;;;1.55;0.52;;;;;;;;;;5089126;28;20455;-62
2022/07/02 08:59:43;;;;;;;2.85;0.40;;;;;;;;;;5077936;28;20041;-62
2022/07/02 09:02:13;;;;;;;1.20;0.57;;;;;;;;;;5085548;28;20040;-62
2022/07/02 09:04:41;;;;;;;2.43;0.53;;;;;;;;;;5081816;28;20047;-62
2022/07/02 09:07:07;;;;;;;1.92;0.50;;;;;;;;;;5084993;28;20051;-61
2022/07/02 09:09:34;;;;;;;1.63;0.43;;;;;;;;;;5085845;28;20082;-63
2022/07/02 09:12:00;;;;;;;1.75;0.40;;;;;;;;;;5087932;28;20065;-63
2022/07/02 09:14:27;;;;;;;2.15;0.52;;;;;;;;;;5088372;28;20093;-63
2022/07/02 09:16:53;;;;;;;3.55;0.75;;;;;;;;;;5082744;28;20082;-64
2022/07/02 09:19:20;;;;;;;1.80;1.33;;;;;;;;;;5085667;28;20040;-63
2022/07/02 09:21:49;;;;;;;2.60;0.47;;;;;;;;;;5089416;28;20044;-63
2022/07/02 09:24:16;;;;;;;2.40;0.57;;;;;;;;;;5088415;28;20040;-63
2022/07/02 09:26:42;;;;;;;3.65;0.90;;;;;;;;;;5090569;28;20043;-64
2022/07/02 09:29:08;;;;;;;2.28;0.80;;;;;;;;;;5085735;28;20438;-63
2022/07/02 09:31:47;;;;;;;2.97;0.85;;;;;;;;;;5090743;28;20033;-63
2022/07/02 09:34:26;;;;;;;2.97;0.88;;;;;;;;;;5089933;28;20109;-63
2022/07/02 09:36:52;;;;;;;2.50;0.70;;;;;;;;;;5083814;28;20036;-63
2022/07/02 09:39:29;;;;;;;1.88;0.60;;;;;;;;;;5089696;28;20501;-63
2022/07/02 09:41:55;;;;;;;2.55;0.80;;;;;;;;;;5089205;28;20047;-63
2022/07/02 09:44:21;;;;;;;5.03;1.05;;;;;;;;;;5084436;28;20044;-63
2022/07/02 09:46:47;;;;;;;1.08;0.63;;;;;;;;;;5084205;28;20045;-63
2022/07/02 09:49:15;;;;;;;2.13;0.60;;;;;;;;;;5085912;28;20085;-63
2022/07/02 09:51:53;;;;;;;4.07;1.10;;;;;;;;;;5082720;28;20044;-63
2022/07/02 09:54:24;;;;;;;3.20;0.93;;;;;;;;;;5091704;28;20032;-63
2022/07/02 09:56:57;;;;;;;3.75;0.90;;;;;;;;;;5088712;28;20042;-63
2022/07/02 09:59:23;;;;;;;2.35;0.82;;;;;;;;;;5084698;28;20045;-63
2022/07/02 10:01:50;;;;;;;2.25;0.73;;;;;;;;;;5090450;28;20044;-63
2022/07/02 10:04:16;;;;;;;2.35;0.70;;;;;;;;;;5087620;28;20422;-63
2022/07/02 10:06:46;;;;;;;3.40;1.00;;;;;;;;;;5092065;28;20405;-63
2022/07/02 10:09:13;;;;;;;3.47;0.80;;;;;;;;;;5087608;28;20074;-63
2022/07/02 10:11:39;;;;;;;2.35;0.90;;;;;;;;;;5088098;28;20036;-63
2022/07/02 10:14:05;;;;;;;1.50;0.70;;;;;;;;;;5090920;28;20032;-63
2022/07/02 10:16:32;;;;;;;2.70;0.90;;;;;;;;;;5085652;28;20127;-63
2022/07/02 10:18:59;;;;;;;2.75;0.80;;;;;;;;;;5085110;28;20474;-63
2022/07/02 10:21:25;;;;;;;3.60;0.98;;;;;;;;;;5090617;28;20044;-63
2022/07/02 10:23:52;;;;;;;3.40;0.90;;;;;;;;;;5092820;28;20035;-63
2022/07/02 10:26:18;;;;;;;2.85;0.70;;;;;;;;;;5116160;22;20043;-62
2022/07/02 10:28:44;;;;;;;1.33;0.60;;;;;;;;;;5111932;28;20040;-62
2022/07/02 10:31:19;;;;;;;3.55;0.88;;;;;;;;;;5111599;28;20043;-62
2022/07/02 10:34:04;;;;;;;2.08;0.88;;;;;;;;;;5112147;27;20043;-62
2022/07/02 10:36:30;;;;;;;1.67;0.70;;;;;;;;;;5090905;28;20090;-62
2022/07/02 10:38:58;;;;;;;4.20;0.88;;;;;;;;;;5084576;28;20037;-62
2022/07/02 10:41:31;;;;;;;1.15;0.50;;;;;;;;;;5082906;28;20055;-61
2022/07/02 10:43:57;;;;;;;3.47;0.80;;;;;;;;;;5084742;28;20056;-61
2022/07/02 10:46:27;;;;;;;1.38;0.80;;;;;;;;;;5076825;28;20044;-62
2022/07/02 10:48:54;;;;;;;2.70;0.70;;;;;;;;;;5086603;28;20035;-62
2022/07/02 10:51:24;;;;;;;3.38;0.95;;;;;;;;;;5083496;28;20128;-62
2022/07/02 10:53:57;;;;;;;2.10;0.73;;;;;;;;;;5079090;28;20044;-62
2022/07/02 10:56:23;;;;;;;2.90;0.82;;;;;;;;;;5076142;28;20643;-62
2022/07/02 10:58:50;;;;;;;1.58;0.75;;;;;;;;;;5067389;28;20486;-62
2022/07/02 11:01:22;;;;;;;0.80;0.70;;;;;;;;;;5058040;28;20037;-62
2022/07/02 11:03:58;;;;;;;2.97;0.70;;;;;;;;;;5085954;28;20460;-62
2022/07/02 11:06:25;;;;;;;5.65;0.80;;;;;;;;;;5090470;28;20044;-62
2022/07/02 11:08:57;;;;;;;2.33;0.70;;;;;;;;;;5089844;28;20035;-62
2022/07/02 11:11:31;;;;;;;3.45;0.77;;;;;;;;;;5092224;28;20028;-62
2022/07/02 11:14:01;;;;;;;2.67;0.70;;;;;;;;;;5092433;28;20089;-62
2022/07/02 11:16:29;;;;;;;2.55;0.82;;;;;;;;;;5089327;28;20089;-62
2022/07/02 11:18:56;;;;;;;2.95;0.65;;;;;;;;;;5093275;28;20089;-62
2022/07/02 11:21:23;;;;;;;3.00;0.70;;;;;;;;;;5082279;28;20043;-62
2022/07/02 11:23:49;;;;;;;5.18;0.90;;;;;;;;;;5086147;28;20036;-62
2022/07/02 11:26:20;;;;;;;2.45;0.80;;;;;;;;;;5082153;28;20502;-62
2022/07/02 11:28:46;;;;;;;2.95;0.80;;;;;;;;;;5085238;28;20081;-62
2022/07/02 11:31:12;;;;;;;2.58;0.80;;;;;;;;;;5080323;28;20144;-62
2022/07/02 11:33:45;;;;;;;2.92;0.88;;;;;;;;;;5082875;28;20035;-62
2022/07/02 11:36:11;;;;;;;3.80;0.88;;;;;;;;;;5083411;28;20054;-62
2022/07/02 11:38:38;;;;;;;1.30;0.70;;;;;;;;;;5067379;28;20036;-62
2022/07/02 11:41:15;;;;;;;2.50;0.80;;;;;;;;;;5074416;28;20036;-62
2022/07/02 11:43:41;;;;;;;1.58;0.90;;;;;;;;;;5079909;28;20036;-61
2022/07/02 11:46:07;;;;;;;1.85;0.63;;;;;;;;;;5083257;28;20043;-62
2022/07/02 11:48:33;;;;;;;4.22;0.90;;;;;;;;;;5086972;28;20055;-62
2022/07/02 11:50:59;;;;;;;0.85;0.73;;;;;;;;;;5083330;28;20394;-62
2022/07/02 11:53:26;;;;;;;3.67;0.90;;;;;;;;;;5089796;28;20400;-62
2022/07/02 11:55:52;;;;;;;1.88;0.80;;;;;;;;;;5083092;28;20040;-61
2022/07/02 11:58:18;;;;;;;4.18;1.02;;;;;;;;;;5072769;28;20050;-61
2022/07/02 12:00:44;;;;;;;3.25;0.90;;;;;;;;;;5088064;28;20067;-62
2022/07/02 12:03:12;;;;;;;2.83;0.82;;;;;;;;;;5089133;28;20457;-62
2022/07/02 12:05:49;;;;;;;2.38;0.77;;;;;;;;;;5085894;28;20583;-62
2022/07/02 12:08:17;;;;;;;2.63;1.10;;;;;;;;;;5086659;28;20622;-62
2022/07/02 12:10:44;;;;;;;2.55;1.00;;;;;;;;;;5091034;28;20115;-61
2022/07/02 12:13:10;;;;;;;3.08;1.02;;;;;;;;;;5086610;28;20048;-62
2022/07/02 12:15:43;;;;;;;1.88;1.02;;;;;;;;;;5087258;28;20120;-62
2022/07/02 12:18:19;;;;;;;3.92;1.25;;;;;;;;;;5086214;28;20520;-64
2022/07/02 12:20:45;;;;;;;3.95;1.13;;;;;;;;;;5083426;28;20044;-63
2022/07/02 12:23:11;;;;;;;3.10;0.98;;;;;;;;;;5078772;28;20045;-64
2022/07/02 12:25:44;;;;;;;3.88;0.93;;;;;;;;;;5071368;28;20036;-63
2022/07/02 12:30:55;;;;;;;2.72;0.90;;;;;;;;;;5077899;28;20037;-63
2022/07/02 12:33:31;;;;;;;2.53;0.82;;;;;;;;;;5078646;28;20043;-64
2022/07/02 12:36:01;;;;;;;3.10;0.90;;;;;;;;;;5078041;28;20060;-64
2022/07/02 12:38:28;;;;;;;2.17;1.00;;;;;;;;;;5095682;28;20036;-64
2022/07/02 12:41:00;;;;;;;1.17;0.75;;;;;;;;;;5090060;28;20413;-64
2022/07/02 12:43:27;;;;;;;2.95;0.80;;;;;;;;;;5081643;28;20127;-64
2022/07/02 12:46:03;;;;;;;3.15;0.95;;;;;;;;;;5089122;28;20040;-64
2022/07/02 12:48:29;;;;;;;1.42;0.80;;;;;;;;;;5089293;28;20048;-64
2022/07/02 12:50:55;;;;;;;2.72;0.70;;;;;;;;;;5085781;28;20036;-64
2022/07/02 12:53:21;;;;;;;2.75;0.70;;;;;;;;;;5090920;28;20050;-64
2022/07/02 12:55:55;;;;;;;5.60;1.00;;;;;;;;;;5087355;28;20040;-64
2022/07/02 12:58:21;;;;;;;2.20;1.15;;;;;;;;;;5090489;28;20044;-64
2022/07/02 13:00:47;;;;;;;2.35;0.77;;;;;;;;;;5088406;28;20040;-64
2022/07/02 13:03:17;;;;;;;9.80;1.98;;;;;;;;;;5089046;28;20086;-64
2022/07/02 13:05:44;;;;;;;2.58;0.90;;;;;;;;;;5086918;28;20464;-64
2022/07/02 13:08:10;;;;;;;3.42;0.77;;;;;;;;;;5090091;28;20044;-64
2022/07/02 13:10:36;;;;;;;3.92;1.00;;;;;;;;;;5089443;28;20032;-64
2022/07/02 13:13:03;;;;;;;3.63;0.80;;;;;;;;;;5089517;28;20028;-64
2022/07/02 13:15:29;;;;;;;4.43;1.08;;;;;;;;;;5082127;28;20397;-64
2022/07/02 13:17:56;;;;;;;2.80;0.80;;;;;;;;;;5090954;28;20400;-64
2022/07/02 13:20:22;;;;;;;1.95;0.60;;;;;;;;;;5089833;28;20059;-64
2022/07/02 13:22:48;;;;;;;2.65;0.93;;;;;;;;;;5085638;28;20493;-64
2022/07/02 13:25:15;;;;;;;1.90;0.88;;;;;;;;;;5095074;28;20047;-64
2022/07/02 13:27:41;;;;;;;2.80;0.90;;;;;;;;;;5089507;28;20043;-64
2022/07/02 13:30:09;;;;;;;2.30;0.82;;;;;;;;;;5082798;28;20398;-64
2022/07/02 13:32:35;;;;;;;2.92;0.60;;;;;;;;;;5083213;28;20033;-64
2022/07/02 13:35:01;;;;;;;4.80;1.02;;;;;;;;;;5085674;28;20040;-64
2022/07/02 13:37:27;;;;;;;3.15;0.80;;;;;;;;;;5083517;28;20108;-64
2022/07/02 13:39:53;;;;;;;2.78;0.80;;;;;;;;;;5077767;28;20048;-64
2022/07/02 13:42:20;;;;;;;4.00;1.10;;;;;;;;;;5074160;28;20051;-64
2022/07/02 13:44:46;;;;;;;4.13;0.98;;;;;;;;;;5088150;28;20083;-64
2022/07/02 13:47:12;;;;;;;2.97;0.95;;;;;;;;;;5089909;28;20036;-64
2022/07/02 13:49:38;;;;;;;3.20;0.82;;;;;;;;;;5088962;28;20055;-64
2022/07/02 13:52:04;;;;;;;3.00;0.90;;;;;;;;;;5078041;28;20121;-64
2022/07/02 13:54:30;;;;;;;2.13;0.63;;;;;;;;;;5090964;28;20044;-64
2022/07/02 13:56:56;;;;;;;3.05;0.90;;;;;;;;;;5086577;28;20047;-64
2022/07/02 13:59:22;;;;;;;1.70;0.80;;;;;;;;;;5087544;28;20046;-64
2022/07/02 14:01:48;;;;;;;3.97;0.88;;;;;;;;;;5084901;28;20047;-64
2022/07/02 14:04:15;;;;;;;4.47;0.93;;;;;;;;;;5085706;28;20115;-64
2022/07/02 14:06:41;;;;;;;2.95;0.75;;;;;;;;;;5077425;28;20068;-64
2022/07/02 14:09:07;;;;;;;1.33;0.70;;;;;;;;;;5086944;28;20882;-64
2022/07/02 14:11:33;;;;;;;3.40;0.80;;;;;;;;;;5080628;28;20409;-64
2022/07/02 14:13:59;;;;;;;4.25;1.13;;;;;;;;;;5072208;28;20503;-64
2022/07/02 14:16:25;;;;;;;1.65;0.60;;;;;;;;;;5086757;28;20040;-64
2022/07/02 14:18:51;;;;;;;2.67;0.70;;;;;;;;;;5081014;28;20042;-64
2022/07/02 14:21:18;;;;;;;2.05;0.52;;;;;;;;;;5078839;28;20071;-64
2022/07/02 14:23:44;;;;;;;3.17;0.70;;;;;;;;;;5059603;28;20048;-64
2022/07/02 14:26:10;;;;;;;2.42;0.70;;;;;;;;;;5084948;28;20093;-64
2022/07/02 14:28:36;;;;;;;2.25;0.80;;;;;;;;;;5080059;28;20482;-64
2022/07/02 14:31:02;;;;;;;4.13;1.00;;;;;;;;;;5080982;28;20032;-64
2022/07/02 14:33:29;;;;;;;2.08;1.00;;;;;;;;;;5077296;28;20750;-64
2022/07/02 14:35:55;;;;;;;3.35;0.80;;;;;;;;;;5083380;28;20559;-64
2022/07/02 14:38:21;;;;;;;3.35;0.95;;;;;;;;;;5085888;28;20040;-64
2022/07/02 14:40:47;;;;;;;2.13;0.77;;;;;;;;;;5077377;28;20115;-64
2022/07/02 14:43:14;;;;;;;1.98;0.70;;;;;;;;;;5080536;28;20486;-64
2022/07/02 14:45:40;;;;;;;2.72;1.02;;;;;;;;;;5074576;28;20044;-64
2022/07/02 14:48:06;;;;;;;3.03;0.90;;;;;;;;;;5074690;28;20040;-64